createdAt,value
2019-02-05T00:01:26.524Z,9.33
2019-02-05T00:03:57.496Z,8.27
2019-02-05T00:06:26.721Z,11.10
2019-02-05T00:08:55.904Z,19.83
2019-02-05T00:11:25.456Z,9.60
2019-02-05T00:13:54.716Z,12.67
2019-02-05T00:16:25.134Z,11.73
2019-02-05T00:18:54.341Z,9.53
2019-02-05T00:21:23.489Z,10.17
2019-02-05T00:23:52.621Z,9.87
2019-02-05T00:26:32.820Z,11.50
2019-02-05T00:29:05.743Z,16.67
2019-02-05T00:31:35.298Z,14.13
2019-02-05T00:34:04.522Z,12.67
2019-02-05T00:36:33.744Z,10.70
2019-02-05T00:39:04.344Z,9.10
2019-02-05T00:41:33.589Z,11.10
2019-02-05T00:44:03.060Z,12.93
2019-02-05T00:46:35.317Z,11.67
2019-02-05T00:49:04.546Z,13.77
2019-02-05T00:51:34.791Z,11.27
2019-02-05T00:54:04.552Z,14.80
2019-02-05T00:56:33.764Z,13.50
2019-02-05T00:59:02.896Z,14.33
2019-02-05T01:01:32.465Z,15.47
2019-02-05T01:04:02.189Z,12.87
2019-02-05T01:06:32.180Z,11.50
2019-02-05T01:09:04.304Z,12.98
2019-02-05T01:11:33.428Z,11.17
2019-02-05T01:14:04.340Z,13.73
2019-02-05T01:16:34.016Z,10.50
2019-02-05T01:19:03.397Z,10.83
2019-02-05T01:21:32.789Z,14.87
2019-02-05T01:24:02.596Z,11.55
2019-02-05T01:26:33.048Z,13.03
2019-02-05T01:29:02.669Z,14.17
2019-02-05T01:31:33.052Z,13.80
2019-02-05T01:34:02.916Z,16.62
2019-02-05T01:36:33.312Z,12.27
2019-02-05T01:39:04.772Z,12.23
2019-02-05T01:41:35.016Z,15.90
2019-02-05T01:44:04.564Z,15.98
2019-02-05T01:46:33.703Z,18.33
2019-02-05T01:49:03.615Z,14.05
2019-02-05T01:51:33.432Z,13.98
2019-02-05T01:54:03.453Z,15.17
2019-02-05T01:56:40.460Z,18.98
2019-02-05T01:59:04.564Z,9.93
2019-02-05T02:01:34.156Z,13.60
2019-02-05T02:04:03.628Z,10.70
2019-02-05T02:06:34.357Z,13.73
2019-02-05T02:09:05.088Z,14.55
2019-02-05T02:11:34.419Z,15.90
2019-02-05T02:14:04.594Z,18.82
2019-02-05T02:16:34.637Z,16.25
2019-02-05T02:19:05.148Z,13.70
2019-02-05T02:21:37.392Z,16.60
2019-02-05T02:24:06.767Z,11.80
2019-02-05T02:26:35.866Z,14.97
2019-02-05T02:29:05.992Z,17.00
2019-02-05T02:31:35.254Z,20.10
2019-02-05T02:34:05.121Z,15.98
2019-02-05T02:36:35.226Z,15.00
2019-02-05T02:39:07.584Z,16.20
2019-02-05T02:41:36.740Z,15.95
2019-02-05T02:44:06.254Z,16.50
2019-02-05T02:46:36.597Z,17.48
2019-02-05T02:49:06.405Z,15.53
2019-02-05T02:51:35.893Z,14.70
2019-02-05T02:54:05.077Z,17.83
2019-02-05T02:56:35.104Z,17.37
2019-02-05T02:59:08.621Z,19.82
2019-02-05T03:01:37.861Z,15.90
2019-02-05T03:04:08.077Z,14.73
2019-02-05T03:06:38.349Z,18.90
2019-02-05T03:09:10.276Z,18.05
2019-02-05T03:11:40.205Z,19.67
2019-02-05T03:14:09.379Z,21.90
2019-02-05T03:16:39.009Z,22.05
2019-02-05T03:19:09.062Z,24.07
2019-02-05T03:21:38.529Z,26.23
2019-02-05T03:24:08.082Z,20.32
2019-02-05T03:26:37.376Z,21.40
2019-02-05T03:29:06.599Z,25.37
2019-02-05T03:31:36.194Z,25.03
2019-02-05T03:34:05.894Z,25.30
2019-02-05T03:36:35.069Z,24.67
2019-02-05T03:39:07.252Z,27.50
2019-02-05T03:41:36.408Z,24.03
2019-02-05T03:44:05.765Z,26.67
2019-02-05T03:46:35.154Z,24.70
2019-02-05T03:49:04.861Z,28.70
2019-02-05T03:52:17.861Z,25.77
2019-02-05T03:55:28.412Z,34.27
2019-02-05T03:58:28.980Z,26.30
2019-02-05T04:01:36.392Z,26.17
2019-02-05T04:04:55.157Z,28.57
2019-02-05T04:08:00.496Z,24.97
2019-02-05T04:11:06.256Z,29.73
2019-02-05T04:14:13.631Z,27.87
2019-02-05T04:17:15.741Z,30.57
2019-02-05T04:20:28.751Z,25.43
2019-02-05T04:23:13.136Z,28.47
2019-02-05T04:25:54.216Z,26.42
2019-02-05T04:28:51.124Z,27.27
2019-02-05T04:31:30.448Z,30.87
2019-02-05T04:34:40.502Z,34.20
2019-02-05T04:37:42.297Z,26.13
2019-02-05T04:40:34.336Z,31.53
2019-02-05T04:43:33.164Z,26.23
2019-02-05T04:46:27.872Z,34.87
2019-02-05T04:49:33.980Z,26.80
2019-02-05T04:52:59.442Z,35.80
2019-02-05T04:56:06.575Z,31.10
2019-02-05T04:59:15.300Z,32.93
2019-02-05T05:02:26.720Z,31.35
2019-02-05T05:05:16.261Z,30.93
2019-02-05T05:08:26.920Z,29.47
2019-02-05T05:10:56.640Z,33.00
2019-02-05T05:13:25.930Z,38.60
2019-02-05T05:15:55.666Z,32.53
2019-02-05T05:18:25.325Z,34.30
2019-02-05T05:20:54.432Z,30.43
2019-02-05T05:23:23.639Z,33.43
2019-02-05T05:25:53.612Z,34.50
2019-02-05T05:28:22.804Z,33.70
2019-02-05T05:30:52.435Z,28.73
2019-02-05T05:33:21.581Z,28.80
2019-02-05T05:35:51.187Z,28.07
2019-02-05T05:38:20.349Z,37.53
2019-02-05T05:40:49.694Z,39.50
2019-02-05T05:43:18.796Z,33.80
2019-02-05T05:45:47.904Z,32.40
2019-02-05T05:48:17.171Z,34.58
2019-02-05T05:50:47.541Z,32.83
2019-02-05T05:53:17.284Z,28.02
2019-02-05T05:55:48.765Z,30.20
2019-02-05T05:58:23.045Z,30.50
2019-02-05T06:00:49.379Z,26.40
2019-02-05T06:03:19.028Z,27.03
2019-02-05T06:05:48.246Z,32.10
2019-02-05T06:08:18.081Z,35.35
2019-02-05T06:10:47.904Z,31.73
2019-02-05T06:13:19.540Z,26.17
2019-02-05T06:15:48.708Z,32.40
2019-02-05T06:18:18.205Z,29.50
2019-02-05T06:20:48.312Z,26.30
2019-02-05T06:23:18.853Z,25.77
2019-02-05T06:25:48.456Z,26.00
2019-02-05T06:28:18.658Z,23.33
2019-02-05T06:30:48.860Z,29.48
2019-02-05T06:33:23.425Z,32.55
2019-02-05T06:35:52.114Z,34.87
2019-02-05T06:38:21.320Z,29.70
2019-02-05T06:40:50.689Z,30.03
2019-02-05T06:43:20.829Z,28.83
2019-02-05T06:45:50.360Z,24.87
2019-02-05T06:48:21.624Z,24.80
2019-02-05T06:50:51.016Z,26.73
2019-02-05T06:53:20.469Z,33.93
2019-02-05T06:55:49.666Z,30.10
2019-02-05T06:58:19.857Z,30.92
2019-02-05T07:00:49.288Z,26.55
2019-02-05T07:03:19.668Z,27.47
2019-02-05T07:05:51.409Z,25.68
2019-02-05T07:08:21.430Z,22.87
2019-02-05T07:10:51.174Z,31.33
2019-02-05T07:13:20.948Z,23.73
2019-02-05T07:15:50.764Z,27.20
2019-02-05T07:18:22.401Z,28.30
2019-02-05T07:20:52.523Z,26.60
2019-02-05T07:23:23.464Z,27.50
2019-02-05T07:25:53.186Z,31.00
2019-02-05T07:28:22.919Z,30.13
2019-02-05T07:30:53.120Z,22.23
2019-02-05T07:33:23.550Z,25.20
2019-02-05T07:35:53.362Z,22.77
2019-02-05T07:38:23.826Z,25.90
2019-02-05T07:40:53.784Z,25.02
2019-02-05T07:43:24.262Z,24.70
2019-02-05T07:45:54.498Z,23.60
2019-02-05T07:48:26.419Z,25.83
2019-02-05T07:50:57.666Z,20.40
2019-02-05T07:53:28.501Z,22.80
2019-02-05T07:55:58.315Z,30.45
2019-02-05T07:58:31.530Z,24.60
2019-02-05T08:01:01.633Z,26.77
2019-02-05T08:03:32.259Z,23.97
2019-02-05T08:06:02.788Z,25.32
2019-02-05T08:08:33.729Z,28.47
2019-02-05T08:11:03.884Z,23.03
2019-02-05T08:13:33.764Z,19.33
2019-02-05T08:16:05.688Z,24.50
2019-02-05T08:18:36.358Z,22.33
2019-02-05T08:21:06.582Z,28.20
2019-02-05T08:23:36.997Z,32.10
2019-02-05T08:26:06.887Z,28.10
2019-02-05T08:28:41.041Z,25.87
2019-02-05T08:31:10.059Z,26.77
2019-02-05T08:33:41.584Z,21.40
2019-02-05T08:36:13.547Z,21.90
2019-02-05T08:38:43.565Z,22.67
2019-02-05T08:41:13.275Z,25.30
2019-02-05T08:43:44.419Z,21.37
2019-02-05T08:46:14.233Z,29.00
2019-02-05T08:48:47.119Z,24.93
2019-02-05T08:51:17.344Z,20.83
2019-02-05T08:53:48.675Z,24.97
2019-02-05T08:56:18.503Z,24.37
2019-02-05T08:58:48.417Z,24.00
2019-02-05T09:01:18.332Z,23.03
2019-02-05T09:03:51.319Z,27.23
2019-02-05T09:06:22.494Z,24.30
2019-02-05T09:08:52.177Z,20.97
2019-02-05T09:11:22.089Z,23.67
2019-02-05T09:13:53.029Z,25.63
2019-02-05T09:16:22.740Z,26.40
2019-02-05T09:18:52.794Z,19.07
2019-02-05T09:21:24.207Z,19.70
2019-02-05T09:23:54.017Z,19.63
2019-02-05T09:26:24.167Z,21.77
2019-02-05T09:28:53.858Z,24.63
2019-02-05T09:31:25.817Z,23.30
2019-02-05T09:33:55.923Z,24.18
2019-02-05T09:36:25.554Z,20.67
2019-02-05T09:38:55.346Z,15.23
2019-02-05T09:41:25.680Z,19.47
2019-02-05T09:43:56.926Z,22.17
2019-02-05T09:46:29.506Z,19.83
2019-02-05T09:48:59.316Z,24.67
2019-02-05T09:51:29.846Z,21.37
2019-02-05T09:53:59.761Z,21.63
2019-02-05T09:56:31.111Z,19.17
2019-02-05T09:59:03.179Z,24.37
2019-02-05T10:01:35.103Z,22.17
2019-02-05T10:04:06.684Z,21.10
2019-02-05T10:06:36.674Z,24.07
2019-02-05T10:09:09.031Z,25.37
2019-02-05T10:11:38.999Z,23.27
2019-02-05T10:14:09.221Z,27.47
2019-02-05T10:16:39.948Z,28.90
2019-02-05T10:19:11.397Z,26.00
2019-02-05T10:21:41.835Z,25.20
2019-02-05T10:24:13.582Z,28.77
2019-02-05T10:26:43.476Z,28.23
2019-02-05T10:29:13.424Z,26.53
2019-02-05T10:31:43.132Z,27.43
2019-02-05T10:34:13.082Z,27.60
2019-02-05T10:36:44.810Z,31.70
2019-02-05T10:39:15.015Z,30.50
2019-02-05T10:41:45.663Z,29.07
2019-02-05T10:44:16.601Z,39.13
2019-02-05T10:46:48.191Z,38.03
2019-02-05T10:49:20.727Z,32.73
2019-02-05T10:51:51.002Z,37.60
2019-02-05T10:54:20.666Z,37.70
2019-02-05T10:56:50.786Z,33.70
2019-02-05T10:59:20.598Z,28.80
2019-02-05T11:01:50.823Z,34.10
2019-02-05T11:04:22.078Z,30.30
2019-02-05T11:06:58.462Z,26.90
2019-02-05T11:09:29.476Z,30.30
2019-02-05T11:11:59.492Z,29.03
2019-02-05T11:14:31.157Z,29.53
2019-02-05T11:17:01.371Z,31.00
2019-02-05T11:19:31.184Z,31.45
2019-02-05T11:22:03.051Z,27.77
2019-02-05T11:24:34.190Z,26.10
2019-02-05T11:27:04.282Z,33.73
2019-02-05T11:29:34.234Z,34.67
2019-02-05T11:32:04.434Z,31.30
2019-02-05T11:34:34.198Z,32.87
2019-02-05T11:37:03.935Z,24.97
2019-02-05T11:39:33.785Z,30.27
2019-02-05T11:42:03.601Z,36.42
2019-02-05T11:44:35.866Z,33.43
2019-02-05T11:47:07.085Z,32.37
2019-02-05T11:49:37.027Z,34.80
2019-02-05T11:52:09.882Z,35.47
2019-02-05T11:54:41.490Z,31.87
2019-02-05T11:57:14.541Z,28.20
2019-02-05T11:59:45.103Z,32.13
2019-02-05T12:02:14.990Z,29.63
2019-02-05T12:04:47.299Z,34.30
2019-02-05T12:07:17.903Z,28.43
2019-02-05T12:09:48.377Z,29.37
2019-02-05T12:12:18.210Z,29.57
2019-02-05T12:14:51.029Z,31.60
2019-02-05T12:17:22.172Z,27.73
2019-02-05T12:19:55.597Z,29.65
2019-02-05T12:22:24.438Z,29.17
2019-02-05T12:24:54.838Z,27.40
2019-02-05T12:27:24.541Z,27.52
2019-02-05T12:29:55.560Z,33.87
2019-02-05T12:32:25.762Z,30.70
2019-02-05T12:34:56.153Z,32.17
2019-02-05T12:37:26.143Z,33.43
2019-02-05T12:39:56.327Z,35.25
2019-02-05T12:42:26.686Z,29.20
2019-02-05T12:44:59.099Z,32.07
2019-02-05T12:47:30.787Z,32.03
2019-02-05T12:50:00.493Z,30.13
2019-02-05T12:52:31.822Z,30.37
2019-02-05T12:55:12.781Z,37.00
2019-02-05T12:57:33.001Z,27.60
2019-02-05T13:00:03.359Z,32.83
2019-02-05T13:02:33.066Z,27.95
2019-02-05T13:05:02.776Z,30.23
2019-02-05T13:07:32.560Z,31.63
2019-02-05T13:10:02.343Z,28.50
2019-02-05T13:12:32.288Z,29.23
2019-02-05T13:15:05.575Z,27.10
2019-02-05T13:17:35.571Z,25.73
2019-02-05T13:20:08.199Z,25.13
2019-02-05T13:22:37.802Z,22.47
2019-02-05T13:25:11.266Z,27.57
2019-02-05T13:27:40.919Z,26.00
2019-02-05T13:30:12.330Z,25.97
2019-02-05T13:32:41.933Z,26.03
2019-02-05T13:35:12.063Z,26.50
2019-02-05T13:37:44.115Z,25.40
2019-02-05T13:40:16.823Z,24.37
2019-02-05T13:42:46.403Z,25.12
2019-02-05T13:45:17.575Z,23.03
2019-02-05T13:47:47.281Z,26.63
2019-02-05T13:50:32.075Z,22.30
2019-02-05T13:52:54.020Z,22.63
2019-02-05T13:55:26.128Z,29.23
2019-02-05T13:58:03.293Z,26.03
2019-02-05T14:00:38.145Z,24.03
2019-02-05T14:03:09.611Z,29.93
2019-02-05T14:05:39.643Z,27.33
2019-02-05T14:08:10.053Z,24.43
2019-02-05T14:10:40.186Z,25.77
2019-02-05T14:13:10.481Z,26.57
2019-02-05T14:15:41.763Z,22.47
2019-02-05T14:18:11.803Z,34.03
2019-02-05T14:20:41.453Z,22.73
2019-02-05T14:23:11.423Z,23.67
2019-02-05T14:25:41.651Z,25.97
2019-02-05T14:28:11.523Z,26.33
2019-02-05T14:30:47.809Z,26.43
2019-02-05T14:33:17.504Z,25.20
2019-02-05T14:35:47.452Z,26.73
2019-02-05T14:38:17.308Z,28.40
2019-02-05T14:40:47.299Z,29.67
2019-02-05T14:43:16.917Z,25.40
2019-02-05T14:45:48.928Z,28.20
2019-02-05T14:48:18.802Z,30.83
2019-02-05T14:50:49.259Z,26.33
2019-02-05T14:53:18.869Z,32.60
2019-02-05T14:55:48.660Z,36.27
2019-02-05T14:58:19.528Z,30.47
2019-02-05T15:00:49.867Z,28.90
2019-02-05T15:03:19.494Z,31.00
2019-02-05T15:05:49.783Z,27.05
2019-02-05T15:08:20.151Z,24.23
2019-02-05T15:10:51.348Z,29.43
2019-02-05T15:13:20.935Z,28.27
2019-02-05T15:15:50.628Z,27.30
2019-02-05T15:18:23.085Z,37.30
2019-02-05T15:20:53.773Z,30.83
2019-02-05T15:23:23.762Z,27.03
2019-02-05T15:25:54.442Z,27.60
2019-02-05T15:28:24.530Z,33.93
2019-02-05T15:30:54.875Z,30.73
2019-02-05T15:33:49.670Z,30.93
2019-02-05T15:36:31.586Z,28.60
2019-02-05T15:39:02.071Z,25.80
2019-02-05T15:41:33.136Z,29.73
2019-02-05T15:44:02.831Z,27.60
2019-02-05T15:46:33.851Z,25.20
2019-02-05T15:49:03.508Z,29.47
2019-02-05T15:51:34.080Z,30.40
2019-02-05T15:54:05.375Z,26.67
2019-02-05T15:56:41.475Z,30.40
2019-02-05T15:59:11.659Z,26.77
2019-02-05T16:01:41.320Z,28.10
2019-02-05T16:04:13.816Z,31.07
2019-02-05T16:06:44.389Z,30.62
2019-02-05T16:09:15.022Z,29.30
2019-02-05T16:11:44.684Z,33.33
2019-02-05T16:14:14.515Z,32.40
2019-02-05T16:16:44.271Z,28.17
2019-02-05T16:19:15.379Z,33.67
2019-02-05T16:21:45.156Z,27.77
2019-02-05T16:24:16.525Z,27.87
2019-02-05T16:26:49.275Z,25.53
2019-02-05T16:29:19.947Z,30.03
2019-02-05T16:31:49.844Z,23.17
2019-02-05T16:34:20.609Z,27.60
2019-02-05T16:36:50.424Z,28.07
2019-02-05T16:39:20.028Z,27.83
2019-02-05T16:41:49.603Z,27.87
2019-02-05T16:44:19.727Z,25.90
2019-02-05T16:46:49.434Z,34.20
2019-02-05T16:49:22.215Z,30.17
2019-02-05T16:51:50.619Z,25.63
2019-02-05T16:54:20.631Z,29.00
2019-02-05T16:56:50.730Z,34.83
2019-02-05T16:59:21.595Z,30.53
2019-02-05T17:01:51.227Z,31.33
2019-02-05T17:04:20.959Z,25.93
2019-02-05T17:06:51.028Z,27.73
2019-02-05T17:09:22.607Z,26.97
2019-02-05T17:11:52.995Z,26.87
2019-02-05T17:14:23.037Z,26.77
2019-02-05T17:16:53.127Z,23.87
2019-02-05T17:19:22.875Z,27.70
2019-02-05T17:21:53.019Z,22.03
2019-02-05T17:24:23.795Z,28.30
2019-02-05T17:26:54.717Z,25.50
2019-02-05T17:29:24.336Z,29.23
2019-02-05T17:31:54.130Z,26.47
2019-02-05T17:34:23.999Z,26.47
2019-02-05T17:36:54.027Z,26.97
2019-02-05T17:39:23.767Z,25.32
2019-02-05T17:41:53.847Z,23.77
2019-02-05T17:44:25.104Z,28.27
2019-02-05T17:46:55.182Z,22.50
2019-02-05T17:49:27.880Z,22.13
2019-02-05T17:51:58.686Z,26.43
2019-02-05T17:54:28.392Z,25.23
2019-02-05T17:56:58.087Z,24.15
2019-02-05T17:59:28.067Z,22.70
2019-02-05T18:01:57.755Z,26.03
2019-02-05T18:04:27.897Z,27.53
2019-02-05T18:06:57.510Z,24.53
2019-02-05T18:09:28.275Z,25.50
2019-02-05T18:11:59.859Z,28.25
2019-02-05T18:14:29.778Z,21.40
2019-02-05T18:17:00.953Z,26.83
2019-02-05T18:19:32.050Z,25.20
2019-02-05T18:22:02.205Z,24.17
2019-02-05T18:24:32.102Z,20.83
2019-02-05T18:27:01.687Z,22.22
2019-02-05T18:29:31.767Z,24.63
2019-02-05T18:32:01.645Z,20.30
2019-02-05T18:34:31.871Z,24.37
2019-02-05T18:37:01.607Z,27.63
2019-02-05T18:39:31.316Z,24.20
2019-02-05T18:42:01.014Z,23.10
2019-02-05T18:44:31.063Z,23.60
2019-02-05T18:47:01.205Z,22.10
2019-02-05T18:49:31.187Z,22.37
2019-02-05T18:52:01.164Z,22.63
2019-02-05T18:54:30.861Z,23.67
2019-02-05T18:57:01.603Z,21.37
2019-02-05T18:59:32.165Z,27.90
2019-02-05T19:02:02.294Z,25.07
2019-02-05T19:04:32.904Z,24.37
2019-02-05T19:07:03.987Z,26.60
2019-02-05T19:09:33.867Z,23.33
2019-02-05T19:12:05.047Z,23.60
2019-02-05T19:14:35.284Z,22.67
2019-02-05T19:17:05.497Z,22.57
2019-02-05T19:19:35.668Z,26.27
2019-02-05T19:22:05.926Z,24.23
2019-02-05T19:25:03.680Z,22.97
2019-02-05T19:27:35.530Z,26.23
2019-02-05T19:30:07.883Z,24.47
2019-02-05T19:32:37.500Z,25.67
2019-02-05T19:35:07.740Z,24.57
2019-02-05T19:37:43.504Z,25.00
2019-02-05T19:40:13.424Z,28.73
2019-02-05T19:42:43.472Z,27.30
2019-02-05T19:45:44.810Z,27.57
2019-02-05T19:48:29.462Z,23.90
2019-02-05T19:51:02.399Z,23.83
2019-02-05T19:53:34.487Z,29.97
2019-02-05T19:56:05.627Z,26.87
2019-02-05T19:58:35.748Z,30.97
2019-02-05T20:01:05.715Z,25.00
2019-02-05T20:03:38.694Z,26.87
2019-02-05T20:06:07.047Z,28.45
2019-02-05T20:08:37.207Z,30.40
2019-02-05T20:11:08.503Z,27.47
2019-02-05T20:13:40.660Z,30.37
2019-02-05T20:16:10.139Z,29.90
2019-02-05T20:18:41.100Z,28.47
2019-02-05T20:21:10.794Z,27.70
2019-02-05T20:23:40.735Z,30.17
2019-02-05T20:26:12.174Z,28.23
2019-02-05T20:28:41.951Z,33.35
2019-02-05T20:31:13.639Z,27.40
2019-02-05T20:33:50.013Z,27.27
2019-02-05T20:36:14.551Z,28.90
2019-02-05T20:38:43.858Z,27.17
2019-02-05T20:41:13.061Z,29.67
2019-02-05T20:43:42.431Z,31.00
2019-02-05T20:46:11.594Z,28.33
2019-02-05T20:48:41.341Z,34.10
2019-02-05T20:51:10.888Z,35.00
2019-02-05T20:53:40.220Z,28.50
2019-02-05T20:56:09.768Z,28.40
2019-02-05T20:58:39.289Z,34.20
2019-02-05T21:01:08.372Z,32.87
2019-02-05T21:03:37.776Z,34.20
2019-02-05T21:06:07.604Z,29.93
2019-02-05T21:08:36.886Z,31.12
2019-02-05T21:11:06.203Z,26.60
2019-02-05T21:13:35.255Z,29.10
2019-02-05T21:16:04.876Z,30.33
2019-02-05T21:18:34.388Z,30.17
2019-02-05T21:21:03.741Z,28.97
2019-02-05T21:23:32.901Z,32.33
2019-02-05T21:26:02.616Z,26.07
2019-02-05T21:28:31.996Z,32.17
2019-02-05T21:31:01.148Z,29.70
2019-02-05T21:33:30.356Z,30.37
2019-02-05T21:35:59.644Z,30.20
2019-02-05T21:38:30.493Z,32.08
2019-02-05T21:41:01.959Z,28.23
2019-02-05T21:43:31.417Z,28.25
2019-02-05T21:46:01.244Z,31.27
2019-02-05T21:48:30.445Z,33.27
2019-02-05T21:50:59.528Z,28.07
2019-02-05T21:53:29.933Z,28.97
2019-02-05T21:55:59.660Z,30.82
2019-02-05T21:58:29.961Z,31.52
2019-02-05T22:00:59.712Z,29.70
2019-02-05T22:03:30.401Z,33.70
2019-02-05T22:06:00.223Z,28.45
2019-02-05T22:08:30.048Z,30.55
2019-02-05T22:11:00.059Z,27.95
2019-02-05T22:13:31.992Z,28.60
2019-02-05T22:16:01.497Z,28.47
2019-02-05T22:18:31.033Z,28.73
2019-02-05T22:21:00.625Z,30.60
2019-02-05T22:23:30.384Z,29.37
2019-02-05T22:26:00.648Z,31.13
2019-02-05T22:28:35.548Z,28.03
2019-02-05T22:31:04.736Z,24.07
2019-02-05T22:33:34.133Z,25.27
2019-02-05T22:36:05.809Z,23.67
2019-02-05T22:38:35.464Z,23.23
2019-02-05T22:41:04.607Z,26.40
2019-02-05T22:43:35.942Z,21.23
2019-02-05T22:46:05.169Z,23.13
2019-02-05T22:48:34.916Z,24.90
2019-02-05T22:51:04.232Z,27.47
2019-02-05T22:53:34.530Z,22.83
2019-02-05T22:56:03.756Z,24.27
2019-02-05T22:58:33.193Z,18.67
2019-02-05T23:01:27.497Z,25.53
2019-02-05T23:04:24.660Z,31.37
2019-02-05T23:07:05.560Z,29.87
2019-02-05T23:10:08.204Z,23.63
2019-02-05T23:12:59.192Z,25.60
2019-02-05T23:15:29.158Z,29.73
2019-02-05T23:17:58.761Z,21.87
2019-02-05T23:20:28.412Z,24.83
2019-02-05T23:22:57.748Z,20.43
2019-02-05T23:25:27.196Z,22.83
2019-02-05T23:27:56.409Z,23.50
2019-02-05T23:30:27.801Z,21.80
2019-02-05T23:32:57.625Z,20.53
2019-02-05T23:35:27.120Z,21.17
2019-02-05T23:37:56.676Z,17.60
2019-02-05T23:40:25.799Z,21.87
2019-02-05T23:42:55.632Z,20.63
2019-02-05T23:45:24.964Z,23.33
2019-02-05T23:47:54.603Z,19.70
2019-02-05T23:50:24.368Z,20.63
2019-02-05T23:52:53.922Z,19.20
2019-02-05T23:55:23.152Z,17.63
2019-02-05T23:57:52.819Z,22.80
